createdAt,value
2023-04-07T00:01:24.580Z,10.96
2023-04-07T00:06:27.568Z,11.13
2023-04-07T00:11:30.439Z,8.87
2023-04-07T00:16:33.237Z,7.49
2023-04-07T00:21:36.077Z,9.41
2023-04-07T00:26:38.915Z,11.62
2023-04-07T00:31:41.867Z,10.49
2023-04-07T00:36:44.852Z,8.40
2023-04-07T00:41:48.360Z,7.60
2023-04-07T00:46:51.564Z,10.32
2023-04-07T00:51:58.572Z,11.82
2023-04-07T00:57:01.817Z,10.57
2023-04-07T01:02:22.125Z,8.52
2023-04-07T01:07:35.016Z,7.24
2023-04-07T01:13:01.560Z,7.89
2023-04-07T01:18:14.203Z,10.94
2023-04-07T01:23:53.001Z,11.40
2023-04-07T01:29:24.896Z,8.96
2023-04-07T01:34:30.503Z,7.46
2023-04-07T01:39:34.387Z,6.63
2023-04-07T01:44:37.404Z,8.73
2023-04-07T01:49:41.507Z,11.32
2023-04-07T01:54:44.709Z,11.50
2023-04-07T01:59:47.527Z,9.25
2023-04-07T02:04:56.898Z,7.77
2023-04-07T02:10:03.994Z,6.84
2023-04-07T02:15:12.670Z,7.62
2023-04-07T02:20:17.639Z,10.69
2023-04-07T02:25:29.202Z,11.47
2023-04-07T02:30:32.418Z,9.42
2023-04-07T02:35:35.407Z,7.84
2023-04-07T02:40:38.243Z,7.42
2023-04-07T02:45:41.097Z,10.03
2023-04-07T02:50:44.060Z,11.85
2023-04-07T02:55:46.898Z,12.44
2023-04-07T03:00:50.864Z,10.26
2023-04-07T03:05:53.924Z,8.54
2023-04-07T03:10:56.964Z,7.47
2023-04-07T03:15:59.770Z,9.20
2023-04-07T03:21:02.996Z,11.74
2023-04-07T03:26:06.922Z,11.78
2023-04-07T03:31:09.723Z,9.53
2023-04-07T03:36:14.039Z,8.11
2023-04-07T03:41:16.869Z,7.18
2023-04-07T03:46:21.463Z,7.75
2023-04-07T03:51:24.373Z,11.05
2023-04-07T03:56:28.887Z,12.32
2023-04-07T04:01:31.920Z,10.50
2023-04-07T04:06:34.828Z,8.66
2023-04-07T04:11:37.967Z,7.61
2023-04-07T04:16:40.913Z,9.28
2023-04-07T04:21:43.791Z,11.66
2023-04-07T04:26:46.739Z,11.86
2023-04-07T04:31:49.569Z,9.73
2023-04-07T04:36:52.475Z,8.25
2023-04-07T04:41:56.713Z,7.43
2023-04-07T04:46:59.674Z,9.64
2023-04-07T04:52:02.538Z,11.82
2023-04-07T04:57:05.363Z,12.56
2023-04-07T05:02:08.520Z,11.82
2023-04-07T05:07:11.552Z,9.66
2023-04-07T05:12:14.366Z,8.32
2023-04-07T05:17:17.201Z,8.52
2023-04-07T05:22:20.036Z,11.21
2023-04-07T05:27:22.945Z,12.37
2023-04-07T05:32:28.635Z,12.12
2023-04-07T05:37:31.525Z,10.03
2023-04-07T05:42:34.326Z,8.64
2023-04-07T05:47:37.349Z,7.69
2023-04-07T05:52:40.277Z,8.19
2023-04-07T05:57:43.111Z,10.99
2023-04-07T06:02:46.538Z,12.38
2023-04-07T06:07:49.486Z,12.32
2023-04-07T06:12:52.304Z,10.25
2023-04-07T06:17:55.139Z,8.82
2023-04-07T06:22:58.037Z,7.92
2023-04-07T06:28:01.319Z,8.68
2023-04-07T06:33:04.158Z,11.50
2023-04-07T06:38:08.130Z,12.81
2023-04-07T06:43:11.029Z,12.11
2023-04-07T06:48:13.834Z,10.15
2023-04-07T06:53:16.713Z,8.98
2023-04-07T06:58:19.537Z,9.10
2023-04-07T07:03:22.455Z,11.67
2023-04-07T07:08:26.996Z,13.05
2023-04-07T07:13:29.859Z,13.01
2023-04-07T07:18:32.697Z,10.93
2023-04-07T07:23:41.610Z,9.62
2023-04-07T07:28:44.446Z,9.87
2023-04-07T07:33:49.199Z,12.35
2023-04-07T07:38:52.298Z,13.58
2023-04-07T07:43:55.214Z,13.98
2023-04-07T07:48:58.000Z,12.18
2023-04-07T07:54:01.138Z,10.58
2023-04-07T07:59:06.583Z,9.59
2023-04-07T08:04:09.851Z,10.02
2023-04-07T08:09:12.942Z,12.52
2023-04-07T08:14:16.240Z,13.81
2023-04-07T08:19:19.172Z,14.24
2023-04-07T08:24:22.353Z,12.37
2023-04-07T08:29:25.381Z,10.80
2023-04-07T08:34:28.292Z,10.68
2023-04-07T08:39:31.145Z,13.00
2023-04-07T08:44:36.146Z,14.28
2023-04-07T08:49:42.263Z,14.91
2023-04-07T08:54:45.253Z,13.60
2023-04-07T08:59:51.502Z,11.79
2023-04-07T09:04:54.740Z,10.65
2023-04-07T09:09:57.569Z,11.11
2023-04-07T09:15:00.713Z,13.88
2023-04-07T09:20:04.935Z,15.00
2023-04-07T09:25:20.306Z,15.14
2023-04-07T09:30:23.624Z,13.05
2023-04-07T09:35:28.573Z,11.61
2023-04-07T09:40:32.687Z,10.68
2023-04-07T09:45:36.974Z,11.26
2023-04-07T09:50:42.121Z,13.81
2023-04-07T09:55:45.319Z,15.11
2023-04-07T10:00:48.803Z,15.89
2023-04-07T10:05:52.598Z,15.55
2023-04-07T10:10:57.560Z,13.42
2023-04-07T10:16:04.009Z,14.13
2023-04-07T10:21:09.267Z,15.74
2023-04-07T10:26:12.761Z,16.25
2023-04-07T10:31:16.909Z,16.40
2023-04-07T10:36:22.088Z,14.47
2023-04-07T10:41:41.886Z,13.96
2023-04-07T10:46:52.269Z,15.81
2023-04-07T10:52:25.038Z,16.72
2023-04-07T10:57:27.866Z,17.35
2023-04-07T11:02:32.720Z,16.90
2023-04-07T11:07:50.529Z,14.97
2023-04-07T11:13:05.420Z,15.64
2023-04-07T11:18:20.912Z,17.03
2023-04-07T11:23:25.378Z,16.27
2023-04-07T11:28:29.645Z,14.58
2023-04-07T11:33:34.941Z,15.93
2023-04-07T11:38:38.964Z,16.76
2023-04-07T11:43:42.867Z,15.75
2023-04-07T11:48:47.253Z,13.81
2023-04-07T11:53:56.987Z,13.67
2023-04-07T11:59:00.055Z,15.55
2023-04-07T12:04:06.555Z,15.43
2023-04-07T12:09:32.384Z,13.41
2023-04-07T12:14:36.598Z,12.95
2023-04-07T12:19:39.873Z,15.09
2023-04-07T12:24:42.760Z,16.08
2023-04-07T12:29:45.541Z,15.91
2023-04-07T12:34:48.341Z,13.99
2023-04-07T12:39:51.185Z,12.64
2023-04-07T12:44:54.007Z,12.80
2023-04-07T12:49:56.820Z,15.05
2023-04-07T12:54:59.782Z,16.00
2023-04-07T13:00:02.633Z,14.73
2023-04-07T13:05:06.031Z,12.73
2023-04-07T13:10:09.756Z,13.62
2023-04-07T13:15:12.693Z,14.94
2023-04-07T13:20:19.521Z,14.61
2023-04-07T13:25:23.770Z,13.03
2023-04-07T13:30:27.484Z,14.93
2023-04-07T13:35:35.629Z,14.83
2023-04-07T13:40:38.747Z,12.79
2023-04-07T13:45:42.096Z,11.74
2023-04-07T13:50:45.044Z,13.56
2023-04-07T13:55:47.844Z,15.22
2023-04-07T14:00:50.753Z,14.13
2023-04-07T14:05:53.846Z,12.36
2023-04-07T14:10:56.671Z,13.07
2023-04-07T14:15:59.542Z,14.95
2023-04-07T14:21:03.347Z,14.03
2023-04-07T14:26:09.328Z,12.41
2023-04-07T14:31:15.802Z,11.42
2023-04-07T14:36:18.806Z,10.74
2023-04-07T14:41:21.822Z,11.37
2023-04-07T14:46:26.711Z,13.99
2023-04-07T14:51:30.278Z,14.97
2023-04-07T14:56:33.070Z,13.26
2023-04-07T15:01:36.254Z,11.89
2023-04-07T15:06:43.051Z,11.06
2023-04-07T15:11:46.222Z,12.14
2023-04-07T15:16:50.467Z,14.53
2023-04-07T15:21:53.288Z,14.71
2023-04-07T15:26:56.193Z,12.67
2023-04-07T15:31:59.123Z,13.10
2023-04-07T15:37:04.081Z,14.34
2023-04-07T15:42:12.802Z,12.71
2023-04-07T15:47:15.706Z,11.38
2023-04-07T15:52:18.564Z,13.01
2023-04-07T15:57:22.194Z,14.55
2023-04-07T16:02:25.217Z,14.05
2023-04-07T16:07:28.221Z,12.21
2023-04-07T16:12:34.340Z,11.09
2023-04-07T16:17:40.573Z,11.44
2023-04-07T16:22:48.148Z,13.82
2023-04-07T16:27:53.057Z,14.56
2023-04-07T16:32:56.046Z,12.81
2023-04-07T16:38:04.698Z,11.47
2023-04-07T16:43:09.157Z,10.80
2023-04-07T16:48:11.987Z,12.78
2023-04-07T16:53:14.797Z,14.35
2023-04-07T16:58:19.182Z,15.05
2023-04-07T17:03:22.292Z,13.52
2023-04-07T17:08:27.043Z,11.80
2023-04-07T17:13:29.845Z,10.78
2023-04-07T17:18:34.063Z,10.99
2023-04-07T17:23:37.455Z,13.42
2023-04-07T17:28:40.405Z,14.68
2023-04-07T17:33:43.255Z,13.86
2023-04-07T17:38:46.119Z,12.01
2023-04-07T17:43:49.086Z,10.88
2023-04-07T17:48:52.316Z,11.34
2023-04-07T17:53:56.685Z,13.61
2023-04-07T17:58:59.611Z,14.56
2023-04-07T18:04:04.425Z,13.06
2023-04-07T18:09:10.203Z,11.28
2023-04-07T18:14:13.071Z,10.59
2023-04-07T18:19:16.683Z,12.67
2023-04-07T18:24:20.735Z,14.08
2023-04-07T18:29:23.838Z,13.96
2023-04-07T18:34:26.805Z,11.98
2023-04-07T18:39:30.105Z,10.66
2023-04-07T18:44:32.902Z,9.79
2023-04-07T18:49:36.349Z,10.23
2023-04-07T18:54:39.177Z,12.72
2023-04-07T18:59:42.037Z,13.98
2023-04-07T19:04:44.825Z,14.64
2023-04-07T19:09:51.230Z,13.51
2023-04-07T19:14:54.071Z,11.55
2023-04-07T19:19:56.924Z,10.30
2023-04-07T19:24:59.783Z,9.42
2023-04-07T19:30:02.803Z,10.05
2023-04-07T19:35:06.577Z,12.51
2023-04-07T19:40:09.601Z,13.54
2023-04-07T19:45:12.832Z,11.89
2023-04-07T19:50:15.767Z,10.36
2023-04-07T19:55:21.942Z,9.46
2023-04-07T20:00:24.906Z,9.67
2023-04-07T20:05:27.762Z,12.25
2023-04-07T20:10:30.880Z,13.69
2023-04-07T20:15:33.719Z,13.40
2023-04-07T20:20:36.976Z,11.28
2023-04-07T20:25:39.872Z,10.89
2023-04-07T20:30:42.707Z,13.01
2023-04-07T20:35:46.468Z,13.76
2023-04-07T20:40:49.366Z,11.86
2023-04-07T20:45:52.595Z,10.81
2023-04-07T20:50:55.477Z,12.55
2023-04-07T20:56:00.717Z,11.73
2023-04-07T21:01:03.618Z,10.36
2023-04-07T21:06:07.116Z,12.02
2023-04-07T21:11:09.921Z,11.39
2023-04-07T21:16:12.767Z,9.96
2023-04-07T21:21:15.600Z,11.77
2023-04-07T21:26:18.992Z,13.27
2023-04-07T21:31:23.887Z,13.05
2023-04-07T21:36:27.165Z,11.02
2023-04-07T21:41:30.055Z,9.73
2023-04-07T21:46:33.268Z,10.18
2023-04-07T21:51:37.486Z,12.61
2023-04-07T21:56:40.913Z,12.85
2023-04-07T22:01:46.151Z,10.91
2023-04-07T22:06:49.950Z,9.66
2023-04-07T22:11:53.744Z,8.86
2023-04-07T22:16:56.639Z,9.31
2023-04-07T22:21:59.441Z,11.91
2023-04-07T22:27:02.399Z,12.53
2023-04-07T22:32:05.789Z,10.74
2023-04-07T22:37:08.715Z,9.52
2023-04-07T22:42:11.527Z,8.76
2023-04-07T22:47:14.391Z,8.17
2023-04-07T22:52:17.302Z,8.58
2023-04-07T22:57:20.531Z,11.21
2023-04-07T23:02:23.430Z,12.63
2023-04-07T23:07:27.154Z,12.72
2023-04-07T23:12:30.354Z,10.85
2023-04-07T23:17:33.431Z,9.62
2023-04-07T23:22:36.268Z,8.82
2023-04-07T23:27:39.097Z,8.80
2023-04-07T23:32:42.334Z,11.35
2023-04-07T23:37:45.252Z,12.82
2023-04-07T23:42:48.114Z,12.64
2023-04-07T23:47:51.024Z,10.67
2023-04-07T23:52:55.743Z,9.47
2023-04-07T23:57:58.883Z,8.67
